createdAt,value
2019-03-12T00:02:23.838Z,98253.88
2019-03-12T00:04:57.248Z,98246.66
2019-03-12T00:07:30.546Z,98256.88
2019-03-12T00:10:03.860Z,98247.66
2019-03-12T00:12:37.187Z,98259.34
2019-03-12T00:15:10.660Z,98249.06
2019-03-12T00:17:44.512Z,98252.29
2019-03-12T00:20:17.671Z,98248.47
2019-03-12T00:22:50.912Z,98247.49
2019-03-12T00:25:24.340Z,98245.69
2019-03-12T00:27:57.591Z,98247.92
2019-03-12T00:30:31.028Z,98243.34
2019-03-12T00:33:04.260Z,98243.73
2019-03-12T00:35:37.582Z,98257.84
2019-03-12T00:38:11.510Z,98247.02
2019-03-12T00:40:45.736Z,98246.76
2019-03-12T00:43:20.383Z,98236.87
2019-03-12T00:45:53.686Z,98244.64
2019-03-12T00:48:28.351Z,98242.23
2019-03-12T00:51:01.666Z,98240.41
2019-03-12T00:53:35.042Z,98235.97
2019-03-12T00:56:08.257Z,98246.75
2019-03-12T00:58:41.622Z,98240.84
2019-03-12T01:01:16.182Z,98236.65
2019-03-12T01:03:50.799Z,98244.16
2019-03-12T01:06:24.447Z,98252.19
2019-03-12T01:08:57.735Z,98244.40
2019-03-12T01:11:30.997Z,98242.24
2019-03-12T01:14:04.239Z,98239.44
2019-03-12T01:16:37.874Z,98239.55
2019-03-12T01:19:11.410Z,98237.30
2019-03-12T01:21:44.812Z,98241.57
2019-03-12T01:24:18.071Z,98249.55
2019-03-12T01:26:51.341Z,98243.70
2019-03-12T01:29:24.581Z,98252.61
2019-03-12T01:31:57.815Z,98246.30
2019-03-12T01:34:31.141Z,98252.84
2019-03-12T01:37:04.465Z,98244.41
2019-03-12T01:39:37.832Z,98240.00
2019-03-12T01:42:11.191Z,98253.45
2019-03-12T01:44:44.339Z,98250.50
2019-03-12T01:47:17.579Z,98244.83
2019-03-12T01:49:50.854Z,98244.94
2019-03-12T01:52:24.250Z,98246.10
2019-03-12T01:54:57.846Z,98250.17
2019-03-12T01:57:31.125Z,98242.28
2019-03-12T02:00:04.664Z,98238.02
2019-03-12T02:02:40.672Z,98252.91
2019-03-12T02:05:14.161Z,98255.87
2019-03-12T02:07:48.014Z,98250.89
2019-03-12T02:10:24.521Z,98254.50
2019-03-12T02:12:57.896Z,98252.34
2019-03-12T02:15:31.268Z,98253.70
2019-03-12T02:18:04.859Z,98261.70
2019-03-12T02:20:38.116Z,98258.80
2019-03-12T02:23:12.653Z,98256.69
2019-03-12T02:25:46.021Z,98252.85
2019-03-12T02:28:19.233Z,98248.36
2019-03-12T02:30:52.554Z,98259.03
2019-03-12T02:33:25.942Z,98266.72
2019-03-12T02:35:59.406Z,98261.88
2019-03-12T02:38:32.691Z,98256.45
2019-03-12T02:41:06.032Z,98256.45
2019-03-12T02:43:39.431Z,98264.86
2019-03-12T02:46:12.783Z,98256.33
2019-03-12T02:48:46.056Z,98248.45
2019-03-12T02:51:19.505Z,98251.69
2019-03-12T02:53:52.783Z,98253.09
2019-03-12T02:56:27.041Z,98241.42
2019-03-12T02:59:00.269Z,98247.68
2019-03-12T03:01:35.407Z,98256.48
2019-03-12T03:04:08.801Z,98253.63
2019-03-12T03:06:43.056Z,98246.34
2019-03-12T03:09:16.568Z,98251.80
2019-03-12T03:11:51.015Z,98254.64
2019-03-12T03:14:38.230Z,98252.56
2019-03-12T03:17:11.674Z,98244.23
2019-03-12T03:19:45.010Z,98246.41
2019-03-12T03:22:18.534Z,98253.16
2019-03-12T03:24:51.961Z,98245.23
2019-03-12T03:27:29.095Z,98254.70
2019-03-12T03:30:16.995Z,98250.40
2019-03-12T03:32:50.778Z,98262.84
2019-03-12T03:35:24.247Z,98242.47
2019-03-12T03:37:57.565Z,98248.13
2019-03-12T03:40:30.819Z,98232.66
2019-03-12T03:43:04.144Z,98242.17
2019-03-12T03:45:52.901Z,98244.73
2019-03-12T03:49:17.799Z,98244.94
2019-03-12T03:52:34.753Z,98246.47
2019-03-12T03:59:32.376Z,98238.12
2019-03-12T04:02:04.207Z,98224.98
2019-03-12T04:04:37.557Z,98237.05
2019-03-12T04:07:12.531Z,98236.22
2019-03-12T04:09:46.447Z,98231.03
2019-03-12T04:12:30.191Z,98215.72
2019-03-12T04:15:03.696Z,98222.52
2019-03-12T04:18:23.750Z,98217.39
2019-03-12T04:20:41.694Z,98228.30
2019-03-12T04:23:16.256Z,98246.97
2019-03-12T04:25:52.002Z,98243.94
2019-03-12T04:28:25.355Z,98219.34
2019-03-12T04:30:58.858Z,98213.70
2019-03-12T04:34:00.219Z,98215.92
2019-03-12T04:36:34.936Z,98202.81
2019-03-12T04:39:09.472Z,98218.37
2019-03-12T04:41:42.853Z,98206.08
2019-03-12T04:44:17.947Z,98222.63
2019-03-12T04:46:51.303Z,98213.86
2019-03-12T04:49:26.292Z,98216.11
2019-03-12T04:51:59.610Z,98218.89
2019-03-12T04:54:32.848Z,98216.09
2019-03-12T04:57:07.856Z,98205.90
2019-03-12T04:59:42.862Z,98216.05
2019-03-12T05:02:16.231Z,98228.59
2019-03-12T05:04:49.479Z,98217.11
2019-03-12T05:07:22.821Z,98210.89
2019-03-12T05:09:57.838Z,98204.73
2019-03-12T05:12:31.263Z,98201.93
2019-03-12T05:15:05.035Z,98222.14
2019-03-12T05:17:38.257Z,98205.94
2019-03-12T05:20:14.065Z,98217.62
2019-03-12T05:22:51.471Z,98204.94
2019-03-12T05:25:24.716Z,98214.50
2019-03-12T05:27:58.067Z,98205.74
2019-03-12T05:30:31.366Z,98215.31
2019-03-12T05:33:04.883Z,98216.20
2019-03-12T05:35:38.284Z,98211.83
2019-03-12T05:38:11.667Z,98221.32
2019-03-12T05:40:45.179Z,98222.91
2019-03-12T05:43:19.201Z,98213.60
2019-03-12T05:45:52.522Z,98217.48
2019-03-12T05:48:25.849Z,98218.30
2019-03-12T05:50:59.901Z,98204.23
2019-03-12T05:53:50.708Z,98213.35
2019-03-12T05:56:24.274Z,98208.67
2019-03-12T05:58:57.507Z,98216.88
2019-03-12T06:01:30.944Z,98225.05
2019-03-12T06:04:04.285Z,98214.17
2019-03-12T06:06:38.932Z,98216.25
2019-03-12T06:09:12.399Z,98219.59
2019-03-12T06:11:45.682Z,98213.34
2019-03-12T06:14:19.721Z,98237.73
2019-03-12T06:16:54.432Z,98229.48
2019-03-12T06:19:27.815Z,98232.70
2019-03-12T06:22:01.090Z,98225.58
2019-03-12T06:24:34.399Z,98239.91
2019-03-12T06:27:08.197Z,98228.77
2019-03-12T06:29:41.424Z,98241.30
2019-03-12T06:32:14.713Z,98232.87
2019-03-12T06:34:48.055Z,98235.95
2019-03-12T06:37:23.349Z,98246.87
2019-03-12T06:39:57.108Z,98245.91
2019-03-12T06:42:31.821Z,98241.02
2019-03-12T06:45:07.903Z,98252.53
2019-03-12T06:47:42.295Z,98246.80
2019-03-12T06:50:15.791Z,98249.05
2019-03-12T06:52:50.116Z,98256.08
2019-03-12T06:55:23.570Z,98246.77
2019-03-12T06:58:08.325Z,98250.13
2019-03-12T07:00:43.161Z,98244.94
2019-03-12T07:03:16.686Z,98262.97
2019-03-12T07:05:50.232Z,98250.94
2019-03-12T07:08:25.027Z,98254.82
2019-03-12T07:10:58.465Z,98250.98
2019-03-12T07:13:31.997Z,98265.11
2019-03-12T07:16:05.326Z,98264.77
2019-03-12T07:18:38.973Z,98259.89
2019-03-12T07:21:12.680Z,98263.50
2019-03-12T07:23:46.073Z,98258.75
2019-03-12T07:26:20.390Z,98258.52
2019-03-12T07:28:53.926Z,98262.86
2019-03-12T07:31:27.866Z,98260.16
2019-03-12T07:34:03.085Z,98268.13
2019-03-12T07:36:36.748Z,98268.33
2019-03-12T07:39:14.490Z,98262.06
2019-03-12T07:41:47.858Z,98264.30
2019-03-12T07:44:21.451Z,98262.30
2019-03-12T07:46:54.664Z,98265.65
2019-03-12T07:49:28.155Z,98271.66
2019-03-12T07:52:01.659Z,98275.23
2019-03-12T07:54:35.450Z,98283.58
2019-03-12T07:57:09.025Z,98275.23
2019-03-12T07:59:42.436Z,98268.02
2019-03-12T08:02:17.356Z,98269.61
2019-03-12T08:04:50.689Z,98279.37
2019-03-12T08:07:24.152Z,98275.22
2019-03-12T08:10:00.998Z,98288.22
2019-03-12T08:12:34.335Z,98284.54
2019-03-12T08:15:22.041Z,98296.63
2019-03-12T08:17:44.967Z,98302.88
2019-03-12T08:20:19.105Z,98300.25
2019-03-12T08:22:53.879Z,98287.26
2019-03-12T08:25:28.523Z,98287.26
2019-03-12T08:28:04.633Z,98292.59
2019-03-12T08:30:38.949Z,98302.74
2019-03-12T08:33:13.707Z,98304.69
2019-03-12T08:35:49.283Z,98303.70
2019-03-12T08:38:22.874Z,98311.69
2019-03-12T08:40:56.340Z,98319.48
2019-03-12T08:43:29.747Z,98317.30
2019-03-12T08:46:03.099Z,98326.40
2019-03-12T08:48:36.440Z,98326.92
2019-03-12T08:51:11.529Z,98318.41
2019-03-12T08:53:44.982Z,98316.39
2019-03-12T08:56:21.242Z,98321.24
2019-03-12T08:58:54.654Z,98324.08
2019-03-12T09:01:28.142Z,98322.38
2019-03-12T09:04:01.860Z,98323.25
2019-03-12T09:06:39.833Z,98329.47
2019-03-12T09:09:13.852Z,98322.14
2019-03-12T09:11:47.488Z,98337.09
2019-03-12T09:14:21.525Z,98335.13
2019-03-12T09:16:57.913Z,98343.19
2019-03-12T09:19:31.565Z,98353.84
2019-03-12T09:22:05.654Z,98347.34
2019-03-12T09:24:41.672Z,98351.73
2019-03-12T09:27:18.480Z,98349.19
2019-03-12T09:29:52.154Z,98350.59
2019-03-12T09:32:25.671Z,98350.07
2019-03-12T09:34:59.851Z,98360.28
2019-03-12T09:37:33.777Z,98358.64
2019-03-12T09:40:11.123Z,98367.38
2019-03-12T09:42:44.455Z,98365.58
2019-03-12T09:45:17.993Z,98374.42
2019-03-12T09:47:52.382Z,98380.45
2019-03-12T09:50:28.652Z,98379.58
2019-03-12T09:53:03.839Z,98380.80
2019-03-12T09:55:38.118Z,98390.38
2019-03-12T09:58:12.297Z,98381.60
2019-03-12T10:00:46.968Z,98389.22
2019-03-12T10:03:20.670Z,98394.09
2019-03-12T10:05:56.210Z,98394.88
2019-03-12T10:08:34.211Z,98397.44
2019-03-12T10:11:12.668Z,98394.28
2019-03-12T10:13:49.436Z,98395.49
2019-03-12T10:16:24.551Z,98398.24
2019-03-12T10:18:58.743Z,98396.38
2019-03-12T10:21:34.822Z,98403.31
2019-03-12T10:24:09.214Z,98404.17
2019-03-12T10:26:43.183Z,98402.42
2019-03-12T10:29:18.386Z,98406.73
2019-03-12T10:31:57.597Z,98409.27
2019-03-12T10:34:31.536Z,98412.91
2019-03-12T10:37:12.007Z,98414.80
2019-03-12T10:39:59.442Z,98413.55
2019-03-12T10:42:35.257Z,98412.77
2019-03-12T10:45:11.978Z,98415.59
2019-03-12T10:47:47.951Z,98421.19
2019-03-12T10:50:23.842Z,98426.36
2019-03-12T10:52:57.751Z,98425.84
2019-03-12T10:55:33.233Z,98422.17
2019-03-12T10:58:09.614Z,98420.64
2019-03-12T11:00:45.039Z,98426.72
2019-03-12T11:03:19.096Z,98423.77
2019-03-12T11:05:54.267Z,98425.74
2019-03-12T11:08:28.268Z,98423.47
2019-03-12T11:11:02.856Z,98425.38
2019-03-12T11:13:36.455Z,98425.33
2019-03-12T11:16:11.823Z,98425.28
2019-03-12T11:18:48.038Z,98428.58
2019-03-12T11:21:22.978Z,98432.92
2019-03-12T11:23:58.949Z,98429.00
2019-03-12T11:26:34.463Z,98430.47
2019-03-12T11:29:11.175Z,98431.76
2019-03-12T11:31:49.387Z,98428.42
2019-03-12T11:34:26.189Z,98434.50
2019-03-12T11:37:06.517Z,98435.60
2019-03-12T11:39:41.169Z,98437.98
2019-03-12T11:42:17.227Z,98442.67
2019-03-12T11:44:55.373Z,98441.88
2019-03-12T11:47:31.442Z,98441.05
2019-03-12T11:50:09.190Z,98438.45
2019-03-12T11:52:52.646Z,98434.88
2019-03-12T11:55:20.770Z,98443.65
2019-03-12T11:57:56.552Z,98436.43
2019-03-12T12:00:32.842Z,98439.88
2019-03-12T12:03:09.365Z,98438.24
2019-03-12T12:05:43.564Z,98437.34
2019-03-12T12:08:19.855Z,98441.62
2019-03-12T12:11:00.625Z,98442.19
2019-03-12T12:13:48.503Z,98445.03
2019-03-12T12:16:24.900Z,98446.51
2019-03-12T12:19:15.518Z,98450.09
2019-03-12T12:21:52.965Z,98454.63
2019-03-12T12:24:30.026Z,98452.98
2019-03-12T12:27:09.194Z,98447.33
2019-03-12T12:29:47.956Z,98454.97
2019-03-12T12:32:24.344Z,98446.45
2019-03-12T12:35:04.335Z,98451.59
2019-03-12T12:37:42.401Z,98458.86
2019-03-12T12:40:27.167Z,98463.61
2019-03-12T12:43:08.545Z,98456.17
2019-03-12T12:45:46.905Z,98461.31
2019-03-12T12:48:23.776Z,98454.14
2019-03-12T12:51:04.141Z,98450.86
2019-03-12T12:53:37.261Z,98450.31
2019-03-12T12:56:13.371Z,98452.20
2019-03-12T12:58:53.362Z,98456.60
2019-03-12T13:01:35.238Z,98454.45
2019-03-12T13:04:12.739Z,98452.52
2019-03-12T13:06:47.961Z,98454.73
2019-03-12T13:09:24.531Z,98457.42
2019-03-12T13:12:01.655Z,98456.82
2019-03-12T13:14:41.646Z,98450.81
2019-03-12T13:17:15.741Z,98455.42
2019-03-12T13:19:51.158Z,98449.30
2019-03-12T13:22:29.612Z,98454.45
2019-03-12T13:25:11.537Z,98450.73
2019-03-12T13:27:48.920Z,98458.97
2019-03-12T13:30:25.853Z,98464.63
2019-03-12T13:33:01.754Z,98457.03
2019-03-12T13:35:39.336Z,98460.45
2019-03-12T13:38:19.125Z,98465.67
2019-03-12T13:41:02.886Z,98459.72
2019-03-12T13:43:37.671Z,98455.62
2019-03-12T13:46:15.097Z,98454.58
2019-03-12T13:48:50.297Z,98463.05
2019-03-12T13:51:27.328Z,98455.80
2019-03-12T13:54:02.278Z,98462.48
2019-03-12T13:56:37.247Z,98463.00
2019-03-12T13:59:12.816Z,98461.11
2019-03-12T14:01:47.563Z,98461.57
2019-03-12T14:04:23.224Z,98462.36
2019-03-12T14:06:59.246Z,98464.85
2019-03-12T14:09:39.222Z,98465.20
2019-03-12T14:12:20.057Z,98465.64
2019-03-12T14:14:55.509Z,98463.87
2019-03-12T14:17:30.126Z,98462.99
2019-03-12T14:20:20.843Z,98464.16
2019-03-12T14:22:55.535Z,98458.67
2019-03-12T14:25:31.693Z,98459.11
2019-03-12T14:28:08.881Z,98459.28
2019-03-12T14:30:43.690Z,98457.09
2019-03-12T14:33:18.192Z,98457.03
2019-03-12T14:35:52.599Z,98459.72
2019-03-12T14:38:27.268Z,98459.63
2019-03-12T14:41:03.336Z,98465.23
2019-03-12T14:43:39.216Z,98453.92
2019-03-12T14:46:14.060Z,98459.66
2019-03-12T14:48:50.832Z,98454.37
2019-03-12T14:51:36.809Z,98458.84
2019-03-12T14:54:21.486Z,98455.17
2019-03-12T14:56:55.942Z,98452.66
2019-03-12T14:59:30.497Z,98452.44
2019-03-12T15:02:04.895Z,98444.19
2019-03-12T15:04:42.747Z,98443.59
2019-03-12T15:07:17.576Z,98448.42
2019-03-12T15:09:54.620Z,98446.34
2019-03-12T15:12:29.121Z,98443.69
2019-03-12T15:15:03.712Z,98447.45
2019-03-12T15:17:38.237Z,98437.66
2019-03-12T15:20:15.286Z,98442.49
2019-03-12T15:22:51.371Z,98442.33
2019-03-12T15:25:25.823Z,98433.10
2019-03-12T15:28:00.219Z,98438.31
2019-03-12T15:30:34.934Z,98436.10
2019-03-12T15:33:11.339Z,98432.75
2019-03-12T15:35:45.693Z,98438.91
2019-03-12T15:38:20.100Z,98431.13
2019-03-12T15:40:56.378Z,98432.75
2019-03-12T15:43:30.974Z,98433.20
2019-03-12T15:46:05.258Z,98434.59
2019-03-12T15:48:39.757Z,98436.98
2019-03-12T15:51:14.062Z,98433.95
2019-03-12T15:53:48.261Z,98435.72
2019-03-12T15:56:24.561Z,98431.19
2019-03-12T15:58:56.325Z,98432.17
2019-03-12T16:01:30.890Z,98436.98
2019-03-12T16:04:05.212Z,98444.12
2019-03-12T16:06:39.881Z,98436.84
2019-03-12T16:09:18.487Z,98438.84
2019-03-12T16:11:52.450Z,98435.50
2019-03-12T16:14:27.822Z,98444.57
2019-03-12T16:17:03.529Z,98436.41
2019-03-12T16:19:39.685Z,98442.41
2019-03-12T16:22:14.059Z,98444.33
2019-03-12T16:24:48.701Z,98449.03
2019-03-12T16:27:22.836Z,98445.83
2019-03-12T16:29:58.617Z,98447.17
2019-03-12T16:32:35.368Z,98448.80
2019-03-12T16:35:10.144Z,98448.73
2019-03-12T16:37:49.522Z,98444.77
2019-03-12T16:40:25.812Z,98439.97
2019-03-12T16:42:59.945Z,98440.18
2019-03-12T16:45:34.135Z,98435.05
2019-03-12T16:48:08.084Z,98438.77
2019-03-12T16:50:42.753Z,98434.59
2019-03-12T16:53:18.826Z,98446.58
2019-03-12T16:55:52.672Z,98437.95
2019-03-12T16:58:26.526Z,98446.50
2019-03-12T17:01:00.628Z,98450.64
2019-03-12T17:03:36.269Z,98448.27
2019-03-12T17:06:10.407Z,98451.84
2019-03-12T17:08:45.878Z,98454.73
2019-03-12T17:11:19.583Z,98450.58
2019-03-12T17:13:53.456Z,98451.55
2019-03-12T17:16:26.937Z,98446.27
2019-03-12T17:19:00.588Z,98441.80
2019-03-12T17:21:34.746Z,98430.05
2019-03-12T17:24:08.550Z,98432.89
2019-03-12T17:26:42.392Z,98425.81
2019-03-12T17:29:16.443Z,98419.21
2019-03-12T17:31:50.367Z,98419.81
2019-03-12T17:34:35.341Z,98416.23
2019-03-12T17:36:59.785Z,98415.72
2019-03-12T17:39:33.643Z,98406.21
2019-03-12T17:42:09.617Z,98401.90
2019-03-12T17:44:43.885Z,98402.91
2019-03-12T17:47:20.401Z,98409.45
2019-03-12T17:49:54.447Z,98402.25
2019-03-12T17:52:29.989Z,98408.37
2019-03-12T17:55:04.527Z,98406.65
2019-03-12T17:57:38.649Z,98404.88
2019-03-12T18:00:28.367Z,98403.80
2019-03-12T18:02:58.851Z,98397.93
2019-03-12T18:05:33.308Z,98394.78
2019-03-12T18:08:07.980Z,98388.81
2019-03-12T18:10:42.437Z,98385.07
2019-03-12T18:13:16.986Z,98392.14
2019-03-12T18:15:51.114Z,98383.13
2019-03-12T18:18:26.022Z,98380.70
2019-03-12T18:21:01.288Z,98385.45
2019-03-12T18:23:35.170Z,98377.08
2019-03-12T18:26:11.879Z,98375.52
2019-03-12T18:28:46.121Z,98371.17
2019-03-12T18:31:20.336Z,98376.91
2019-03-12T18:33:54.395Z,98374.10
2019-03-12T18:36:29.425Z,98374.48
2019-03-12T18:39:03.565Z,98372.47
2019-03-12T18:41:39.358Z,98383.93
2019-03-12T18:44:14.013Z,98375.30
2019-03-12T18:46:49.055Z,98372.49
2019-03-12T18:49:23.087Z,98365.86
2019-03-12T18:51:56.507Z,98369.00
2019-03-12T18:54:29.819Z,98373.52
2019-03-12T18:57:03.736Z,98380.52
2019-03-12T18:59:37.200Z,98375.91
2019-03-12T19:02:10.664Z,98375.22
2019-03-12T19:04:43.917Z,98372.05
2019-03-12T19:07:18.590Z,98373.53
2019-03-12T19:09:52.143Z,98374.78
2019-03-12T19:12:25.429Z,98381.47
2019-03-12T19:14:59.121Z,98376.20
2019-03-12T19:17:32.937Z,98375.39
2019-03-12T19:20:08.875Z,98379.78
2019-03-12T19:22:42.739Z,98376.29
2019-03-12T19:25:38.014Z,98376.80
2019-03-12T19:28:09.936Z,98376.42
2019-03-12T19:30:43.747Z,98374.87
2019-03-12T19:33:18.409Z,98379.16
2019-03-12T19:35:52.579Z,98395.59
2019-03-12T19:38:28.458Z,98384.06
2019-03-12T19:41:02.389Z,98381.03
2019-03-12T19:43:35.823Z,98384.52
2019-03-12T19:46:09.326Z,98387.03
2019-03-12T19:48:42.742Z,98387.41
2019-03-12T19:51:16.120Z,98391.59
2019-03-12T19:53:49.785Z,98386.17
2019-03-12T19:56:24.885Z,98389.71
2019-03-12T19:58:59.022Z,98377.91
2019-03-12T20:01:34.126Z,98389.05
2019-03-12T20:04:09.287Z,98383.64
2019-03-12T20:06:42.913Z,98388.52
2019-03-12T20:09:20.347Z,98392.55
2019-03-12T20:12:05.277Z,98385.05
2019-03-12T20:14:59.561Z,98401.11
2019-03-12T20:17:59.656Z,98392.70
2019-03-12T20:21:01.768Z,98399.77
2019-03-12T20:24:13.426Z,98396.19
2019-03-12T20:27:27.040Z,98397.20
2019-03-12T20:30:33.097Z,98395.45
2019-03-12T20:33:44.932Z,98391.89
2019-03-12T20:36:47.619Z,98395.74
2019-03-12T20:40:11.895Z,98400.20
2019-03-12T20:43:08.982Z,98409.86
2019-03-12T20:46:13.578Z,98421.09
2019-03-12T20:49:14.997Z,98412.47
2019-03-12T20:52:38.024Z,98421.34
2019-03-12T20:55:53.972Z,98424.25
2019-03-12T20:59:11.385Z,98421.38
2019-03-12T21:05:06.761Z,98431.34
2019-03-12T21:08:14.060Z,98440.55
2019-03-12T21:10:52.743Z,98432.12
2019-03-12T21:13:59.833Z,98430.43
2019-03-12T21:17:22.222Z,98433.08
2019-03-12T21:20:38.430Z,98429.19
2019-03-12T21:23:14.652Z,98425.66
2019-03-12T21:26:08.291Z,98425.84
2019-03-12T21:29:10.979Z,98431.18
2019-03-12T21:31:44.426Z,98433.08
2019-03-12T21:34:18.006Z,98428.63
2019-03-12T21:36:52.352Z,98430.72
2019-03-12T21:39:25.665Z,98430.73
2019-03-12T21:41:58.952Z,98429.09
2019-03-12T21:44:32.705Z,98436.84
2019-03-12T21:47:08.093Z,98439.98
2019-03-12T21:49:41.524Z,98434.48
2019-03-12T21:52:16.174Z,98437.98
2019-03-12T21:54:51.892Z,98440.55
2019-03-12T21:57:25.577Z,98441.20
2019-03-12T21:59:59.419Z,98447.33
2019-03-12T22:02:33.964Z,98449.64
2019-03-12T22:05:08.606Z,98449.94
2019-03-12T22:07:42.574Z,98452.73
2019-03-12T22:10:20.118Z,98454.84
2019-03-12T22:12:54.160Z,98456.48
2019-03-12T22:15:29.792Z,98454.37
2019-03-12T22:18:03.764Z,98458.28
2019-03-12T22:20:38.318Z,98462.69
2019-03-12T22:23:17.241Z,98465.87
2019-03-12T22:25:50.968Z,98470.75
2019-03-12T22:28:24.385Z,98469.20
2019-03-12T22:30:58.040Z,98477.32
2019-03-12T22:33:32.839Z,98482.47
2019-03-12T22:36:07.161Z,98484.90
2019-03-12T22:38:40.848Z,98484.11
2019-03-12T22:41:14.366Z,98493.67
2019-03-12T22:43:47.873Z,98501.34
2019-03-12T22:46:21.324Z,98493.88
2019-03-12T22:48:54.754Z,98507.39
2019-03-12T22:51:28.064Z,98503.75
2019-03-12T22:54:01.448Z,98503.59
2019-03-12T22:56:34.752Z,98506.47
2019-03-12T22:59:08.011Z,98513.41
2019-03-12T23:01:41.517Z,98510.47
2019-03-12T23:04:14.847Z,98524.81
2019-03-12T23:06:48.206Z,98525.75
2019-03-12T23:09:21.542Z,98529.09
2019-03-12T23:11:55.360Z,98523.75
2019-03-12T23:14:28.812Z,98536.02
2019-03-12T23:17:05.226Z,98536.79
2019-03-12T23:19:38.801Z,98536.03
2019-03-12T23:22:12.280Z,98531.39
2019-03-12T23:24:45.816Z,98547.02
2019-03-12T23:27:19.213Z,98541.60
2019-03-12T23:29:53.521Z,98538.41
2019-03-12T23:32:28.696Z,98534.40
2019-03-12T23:35:02.161Z,98544.65
2019-03-12T23:37:35.487Z,98545.23
2019-03-12T23:40:18.898Z,98552.93
2019-03-12T23:42:52.626Z,98554.23
2019-03-12T23:45:26.187Z,98556.52
2019-03-12T23:47:59.557Z,98562.78
2019-03-12T23:50:33.281Z,98561.37
2019-03-12T23:53:06.861Z,98575.10
2019-03-12T23:55:40.255Z,98576.67
2019-03-12T23:58:13.597Z,98571.84
